KDIK/DIK METAR and TAF weather

Enter ICAO airport designator
Station Type Date Time Source
KDIK METAR 2022/01/29 12:56 UTC NOAA

KDIK 291256Z AUTO 29014KT 10SM CLR M01/M09 A2992 RMK AO2 SLP159 T10061089


Station Type Date Time Source
KDIK Decoded METAR 2022/01/29 12:56 UTC NOAA

THEODORE ROOSEVELT REGIONAL, ND, United States (KDIK) 46-48N 102-48W 788M
Jan 29, 2022 - 07:56 AM EST / 2022.01.29 1256 UTC
Wind: from the WNW (290 degrees) at 16 MPH (14 KT):0
Visibility: 10 mile(s):0
Sky conditions: clear
Temperature: 30.9 F (-0.6 C)
Windchill: 19 F (-7 C):1
Dew Point: 16.0 F (-8.9 C)
Relative Humidity: 53%
Pressure (altimeter): 29.92 in. Hg (1013 hPa)
ob: KDIK 291256Z AUTO 29014KT 10SM CLR M01/M09 A2992 RMK AO2 SLP159 T10061089
cycle: 13

Station Type Date Time Source
KDIK TAF 2022/01/29 12:28 UTC NOAA

TAF KDIK 291126Z 2912/3012 28012G20KT P6SM SCT250
FM292200 VRB05KT P6SM SCT250

Example: see airport list